sensor_id;sensor_type;location;lat;lon;timestamp;P1;durP1;ratioP1;P2;durP2;ratioP2
23117;SDS011;11728;50.624;6.014;2023-04-03T00:03:08;3.97;;;2.25;;
23117;SDS011;11728;50.624;6.014;2023-04-03T00:08:08;6.15;;;2.30;;
23117;SDS011;11728;50.624;6.014;2023-04-03T00:13:09;5.97;;;2.50;;
23117;SDS011;11728;50.624;6.014;2023-04-03T00:18:10;4.53;;;2.15;;
23117;SDS011;11728;50.624;6.014;2023-04-03T00:23:11;4.75;;;2.47;;
23117;SDS011;11728;50.624;6.014;2023-04-03T00:28:11;5.18;;;2.83;;
23117;SDS011;11728;50.624;6.014;2023-04-03T00:33:12;5.13;;;2.80;;
23117;SDS011;11728;50.624;6.014;2023-04-03T00:38:13;5.68;;;2.92;;
23117;SDS011;11728;50.624;6.014;2023-04-03T00:43:18;6.15;;;3.30;;
23117;SDS011;11728;50.624;6.014;2023-04-03T00:53:43;6.28;;;3.30;;
23117;SDS011;11728;50.624;6.014;2023-04-03T00:58:48;8.95;;;3.50;;
23117;SDS011;11728;50.624;6.014;2023-04-03T01:03:52;5.13;;;2.85;;
23117;SDS011;11728;50.624;6.014;2023-04-03T01:08:53;7.90;;;3.08;;
23117;SDS011;11728;50.624;6.014;2023-04-03T01:13:55;5.07;;;3.15;;
23117;SDS011;11728;50.624;6.014;2023-04-03T01:18:55;6.55;;;2.72;;
23117;SDS011;11728;50.624;6.014;2023-04-03T01:23:58;6.60;;;3.20;;
23117;SDS011;11728;50.624;6.014;2023-04-03T01:29:08;4.80;;;3.05;;
23117;SDS011;11728;50.624;6.014;2023-04-03T01:34:09;4.90;;;3.10;;
23117;SDS011;11728;50.624;6.014;2023-04-03T01:39:09;7.55;;;3.10;;
23117;SDS011;11728;50.624;6.014;2023-04-03T01:44:09;4.78;;;3.20;;
23117;SDS011;11728;50.624;6.014;2023-04-03T01:49:10;5.90;;;3.03;;
23117;SDS011;11728;50.624;6.014;2023-04-03T01:54:10;6.15;;;3.28;;
23117;SDS011;11728;50.624;6.014;2023-04-03T01:59:11;5.22;;;3.13;;
23117;SDS011;11728;50.624;6.014;2023-04-03T02:04:11;5.32;;;2.90;;
23117;SDS011;11728;50.624;6.014;2023-04-03T02:09:12;5.40;;;3.30;;
23117;SDS011;11728;50.624;6.014;2023-04-03T02:14:13;6.47;;;3.17;;
23117;SDS011;11728;50.624;6.014;2023-04-03T02:19:13;4.97;;;2.87;;
23117;SDS011;11728;50.624;6.014;2023-04-03T02:24:13;6.70;;;3.20;;
23117;SDS011;11728;50.624;6.014;2023-04-03T02:29:14;7.13;;;3.08;;
23117;SDS011;11728;50.624;6.014;2023-04-03T02:34:14;6.13;;;3.17;;
23117;SDS011;11728;50.624;6.014;2023-04-03T02:39:15;5.25;;;2.97;;
23117;SDS011;11728;50.624;6.014;2023-04-03T02:44:15;4.47;;;2.90;;
23117;SDS011;11728;50.624;6.014;2023-04-03T02:49:16;7.72;;;3.35;;
23117;SDS011;11728;50.624;6.014;2023-04-03T02:54:16;6.85;;;2.55;;
23117;SDS011;11728;50.624;6.014;2023-04-03T02:59:16;5.18;;;3.13;;
23117;SDS011;11728;50.624;6.014;2023-04-03T03:04:17;6.77;;;3.53;;
23117;SDS011;11728;50.624;6.014;2023-04-03T03:09:17;5.22;;;3.05;;
23117;SDS011;11728;50.624;6.014;2023-04-03T03:14:18;6.57;;;2.85;;
23117;SDS011;11728;50.624;6.014;2023-04-03T03:19:18;5.73;;;2.90;;
23117;SDS011;11728;50.624;6.014;2023-04-03T03:24:19;7.47;;;2.83;;
23117;SDS011;11728;50.624;6.014;2023-04-03T03:29:19;4.07;;;2.45;;
23117;SDS011;11728;50.624;6.014;2023-04-03T03:34:20;4.00;;;2.58;;
23117;SDS011;11728;50.624;6.014;2023-04-03T03:39:20;6.40;;;2.70;;
23117;SDS011;11728;50.624;6.014;2023-04-03T03:44:21;3.80;;;2.72;;
23117;SDS011;11728;50.624;6.014;2023-04-03T03:49:22;4.05;;;2.58;;
23117;SDS011;11728;50.624;6.014;2023-04-03T03:54:22;4.50;;;2.90;;
23117;SDS011;11728;50.624;6.014;2023-04-03T03:59:23;5.80;;;3.00;;
23117;SDS011;11728;50.624;6.014;2023-04-03T04:04:23;4.70;;;3.05;;
23117;SDS011;11728;50.624;6.014;2023-04-03T04:09:23;5.88;;;3.58;;
23117;SDS011;11728;50.624;6.014;2023-04-03T04:14:24;6.88;;;3.90;;
23117;SDS011;11728;50.624;6.014;2023-04-03T04:19:24;5.88;;;3.88;;
23117;SDS011;11728;50.624;6.014;2023-04-03T04:24:24;5.90;;;3.97;;
23117;SDS011;11728;50.624;6.014;2023-04-03T04:29:25;9.18;;;4.07;;
23117;SDS011;11728;50.624;6.014;2023-04-03T04:34:25;6.15;;;4.22;;
23117;SDS011;11728;50.624;6.014;2023-04-03T04:39:26;8.02;;;3.85;;
23117;SDS011;11728;50.624;6.014;2023-04-03T04:44:26;7.93;;;4.50;;
23117;SDS011;11728;50.624;6.014;2023-04-03T04:49:26;11.45;;;7.50;;
23117;SDS011;11728;50.624;6.014;2023-04-03T04:54:27;10.60;;;8.07;;
23117;SDS011;11728;50.624;6.014;2023-04-03T04:59:27;8.97;;;7.20;;
23117;SDS011;11728;50.624;6.014;2023-04-03T05:04:27;8.02;;;6.30;;
23117;SDS011;11728;50.624;6.014;2023-04-03T05:09:28;10.93;;;6.00;;
23117;SDS011;11728;50.624;6.014;2023-04-03T05:14:28;10.70;;;5.05;;
23117;SDS011;11728;50.624;6.014;2023-04-03T05:19:30;7.65;;;4.80;;
23117;SDS011;11728;50.624;6.014;2023-04-03T05:24:30;7.15;;;4.70;;
23117;SDS011;11728;50.624;6.014;2023-04-03T05:29:30;10.77;;;4.77;;
23117;SDS011;11728;50.624;6.014;2023-04-03T05:34:31;6.18;;;3.88;;
23117;SDS011;11728;50.624;6.014;2023-04-03T05:39:31;6.38;;;3.70;;
23117;SDS011;11728;50.624;6.014;2023-04-03T05:44:31;8.95;;;3.17;;
23117;SDS011;11728;50.624;6.014;2023-04-03T05:49:32;5.85;;;2.92;;
23117;SDS011;11728;50.624;6.014;2023-04-03T05:54:32;7.63;;;3.03;;
23117;SDS011;11728;50.624;6.014;2023-04-03T05:59:33;6.40;;;2.60;;
23117;SDS011;11728;50.624;6.014;2023-04-03T06:04:33;6.57;;;2.72;;
23117;SDS011;11728;50.624;6.014;2023-04-03T06:09:33;12.05;;;2.78;;
23117;SDS011;11728;50.624;6.014;2023-04-03T06:14:34;3.87;;;2.77;;
23117;SDS011;11728;50.624;6.014;2023-04-03T06:19:34;5.97;;;2.92;;
23117;SDS011;11728;50.624;6.014;2023-04-03T06:24:35;5.55;;;3.05;;
23117;SDS011;11728;50.624;6.014;2023-04-03T06:29:37;5.63;;;3.15;;
23117;SDS011;11728;50.624;6.014;2023-04-03T06:34:37;7.20;;;3.78;;
23117;SDS011;11728;50.624;6.014;2023-04-03T06:39:37;7.00;;;3.78;;
23117;SDS011;11728;50.624;6.014;2023-04-03T06:44:38;7.37;;;3.67;;
23117;SDS011;11728;50.624;6.014;2023-04-03T06:49:38;9.55;;;3.92;;
23117;SDS011;11728;50.624;6.014;2023-04-03T06:54:39;8.73;;;3.90;;
23117;SDS011;11728;50.624;6.014;2023-04-03T06:59:40;9.30;;;3.60;;
23117;SDS011;11728;50.624;6.014;2023-04-03T07:04:41;9.45;;;4.18;;
23117;SDS011;11728;50.624;6.014;2023-04-03T07:09:41;7.22;;;3.50;;
23117;SDS011;11728;50.624;6.014;2023-04-03T07:14:42;9.13;;;3.70;;
23117;SDS011;11728;50.624;6.014;2023-04-03T07:19:44;10.20;;;3.42;;
23117;SDS011;11728;50.624;6.014;2023-04-03T07:24:44;8.13;;;3.10;;
23117;SDS011;11728;50.624;6.014;2023-04-03T07:29:46;4.28;;;2.53;;
23117;SDS011;11728;50.624;6.014;2023-04-03T07:34:48;6.25;;;2.65;;
23117;SDS011;11728;50.624;6.014;2023-04-03T07:39:48;7.87;;;1.70;;
23117;SDS011;11728;50.624;6.014;2023-04-03T07:44:49;7.32;;;1.77;;
23117;SDS011;11728;50.624;6.014;2023-04-03T07:49:49;5.13;;;1.50;;
23117;SDS011;11728;50.624;6.014;2023-04-03T07:54:49;5.20;;;1.70;;
23117;SDS011;11728;50.624;6.014;2023-04-03T07:59:50;5.37;;;1.43;;
23117;SDS011;11728;50.624;6.014;2023-04-03T08:04:50;3.47;;;1.37;;
23117;SDS011;11728;50.624;6.014;2023-04-03T08:09:51;4.75;;;1.35;;
23117;SDS011;11728;50.624;6.014;2023-04-03T08:14:51;5.97;;;1.30;;
23117;SDS011;11728;50.624;6.014;2023-04-03T08:19:51;3.83;;;1.20;;
23117;SDS011;11728;50.624;6.014;2023-04-03T08:24:52;4.45;;;1.42;;
23117;SDS011;11728;50.624;6.014;2023-04-03T08:29:52;2.40;;;0.95;;
23117;SDS011;11728;50.624;6.014;2023-04-03T08:34:53;3.38;;;1.27;;
23117;SDS011;11728;50.624;6.014;2023-04-03T08:39:53;3.67;;;1.10;;
23117;SDS011;11728;50.624;6.014;2023-04-03T08:44:59;3.33;;;1.40;;
23117;SDS011;11728;50.624;6.014;2023-04-03T08:50:07;3.10;;;1.17;;
23117;SDS011;11728;50.624;6.014;2023-04-03T08:55:24;5.75;;;1.30;;
23117;SDS011;11728;50.624;6.014;2023-04-03T09:00:28;3.60;;;1.50;;
23117;SDS011;11728;50.624;6.014;2023-04-03T09:10:38;3.67;;;1.27;;
23117;SDS011;11728;50.624;6.014;2023-04-03T09:15:41;5.07;;;1.27;;
23117;SDS011;11728;50.624;6.014;2023-04-03T09:26:05;3.92;;;1.48;;
23117;SDS011;11728;50.624;6.014;2023-04-03T09:31:14;3.88;;;1.48;;
23117;SDS011;11728;50.624;6.014;2023-04-03T09:41:56;4.50;;;1.48;;
23117;SDS011;11728;50.624;6.014;2023-04-03T09:52:25;4.82;;;1.73;;
23117;SDS011;11728;50.624;6.014;2023-04-03T09:57:28;4.07;;;1.50;;
23117;SDS011;11728;50.624;6.014;2023-04-03T10:07:36;3.25;;;1.30;;
23117;SDS011;11728;50.624;6.014;2023-04-03T10:12:37;5.55;;;2.40;;
23117;SDS011;11728;50.624;6.014;2023-04-03T10:23:05;4.93;;;1.75;;
23117;SDS011;11728;50.624;6.014;2023-04-03T10:28:21;6.40;;;2.33;;
23117;SDS011;11728;50.624;6.014;2023-04-03T10:44:04;4.13;;;1.83;;
23117;SDS011;11728;50.624;6.014;2023-04-03T10:49:14;5.57;;;1.63;;
23117;SDS011;11728;50.624;6.014;2023-04-03T10:54:55;4.68;;;1.30;;
23117;SDS011;11728;50.624;6.014;2023-04-03T11:00:06;2.97;;;1.13;;
23117;SDS011;11728;50.624;6.014;2023-04-03T11:10:42;4.63;;;1.73;;
23117;SDS011;11728;50.624;6.014;2023-04-03T11:15:46;3.25;;;1.58;;
23117;SDS011;11728;50.624;6.014;2023-04-03T11:21:33;4.90;;;1.88;;
23117;SDS011;11728;50.624;6.014;2023-04-03T11:26:17;3.70;;;1.25;;
23117;SDS011;11728;50.624;6.014;2023-04-03T11:36:44;3.78;;;1.50;;
23117;SDS011;11728;50.624;6.014;2023-04-03T11:41:49;3.20;;;1.00;;
23117;SDS011;11728;50.624;6.014;2023-04-03T11:51:51;4.20;;;1.20;;
23117;SDS011;11728;50.624;6.014;2023-04-03T11:56:52;2.20;;;0.75;;
23117;SDS011;11728;50.624;6.014;2023-04-03T12:01:56;3.73;;;1.50;;
23117;SDS011;11728;50.624;6.014;2023-04-03T12:06:59;3.92;;;1.17;;
23117;SDS011;11728;50.624;6.014;2023-04-03T12:12:21;4.05;;;1.15;;
23117;SDS011;11728;50.624;6.014;2023-04-03T12:17:27;3.13;;;1.05;;
23117;SDS011;11728;50.624;6.014;2023-04-03T12:22:30;3.90;;;1.20;;
23117;SDS011;11728;50.624;6.014;2023-04-03T12:27:34;4.60;;;1.10;;
23117;SDS011;11728;50.624;6.014;2023-04-03T12:32:46;3.53;;;1.20;;
23117;SDS011;11728;50.624;6.014;2023-04-03T12:48:54;2.90;;;1.20;;
23117;SDS011;11728;50.624;6.014;2023-04-03T12:54:00;3.17;;;1.08;;
23117;SDS011;11728;50.624;6.014;2023-04-03T12:59:20;3.30;;;1.10;;
23117;SDS011;11728;50.624;6.014;2023-04-03T13:04:21;4.53;;;1.25;;
23117;SDS011;11728;50.624;6.014;2023-04-03T13:09:22;3.63;;;1.23;;
23117;SDS011;11728;50.624;6.014;2023-04-03T13:14:26;2.88;;;1.23;;
23117;SDS011;11728;50.624;6.014;2023-04-03T13:19:29;2.70;;;1.08;;
23117;SDS011;11728;50.624;6.014;2023-04-03T13:24:30;3.88;;;1.25;;
23117;SDS011;11728;50.624;6.014;2023-04-03T13:29:36;2.90;;;1.10;;
23117;SDS011;11728;50.624;6.014;2023-04-03T13:34:38;4.10;;;1.20;;
23117;SDS011;11728;50.624;6.014;2023-04-03T13:39:41;4.25;;;1.00;;
23117;SDS011;11728;50.624;6.014;2023-04-03T13:44:42;2.63;;;1.00;;
23117;SDS011;11728;50.624;6.014;2023-04-03T13:49:44;3.97;;;1.52;;
23117;SDS011;11728;50.624;6.014;2023-04-03T13:54:46;2.53;;;0.98;;
23117;SDS011;11728;50.624;6.014;2023-04-03T13:59:51;2.63;;;0.90;;
23117;SDS011;11728;50.624;6.014;2023-04-03T14:04:56;3.35;;;1.20;;
23117;SDS011;11728;50.624;6.014;2023-04-03T14:10:01;2.72;;;1.20;;
23117;SDS011;11728;50.624;6.014;2023-04-03T14:15:02;1.92;;;0.80;;
23117;SDS011;11728;50.624;6.014;2023-04-03T14:20:05;3.40;;;1.00;;
23117;SDS011;11728;50.624;6.014;2023-04-03T14:25:06;2.97;;;0.98;;
23117;SDS011;11728;50.624;6.014;2023-04-03T14:30:08;2.92;;;0.93;;
23117;SDS011;11728;50.624;6.014;2023-04-03T14:35:15;3.50;;;0.90;;
23117;SDS011;11728;50.624;6.014;2023-04-03T14:40:19;3.42;;;1.27;;
23117;SDS011;11728;50.624;6.014;2023-04-03T14:45:23;2.97;;;1.25;;
23117;SDS011;11728;50.624;6.014;2023-04-03T14:50:24;3.33;;;1.30;;
23117;SDS011;11728;50.624;6.014;2023-04-03T14:55:27;5.78;;;1.27;;
23117;SDS011;11728;50.624;6.014;2023-04-03T15:00:27;2.83;;;1.23;;
23117;SDS011;11728;50.624;6.014;2023-04-03T15:05:28;3.23;;;1.30;;
23117;SDS011;11728;50.624;6.014;2023-04-03T15:10:28;3.00;;;1.23;;
23117;SDS011;11728;50.624;6.014;2023-04-03T15:15:30;4.22;;;1.30;;
23117;SDS011;11728;50.624;6.014;2023-04-03T15:20:31;3.80;;;1.40;;
23117;SDS011;11728;50.624;6.014;2023-04-03T15:25:33;3.42;;;1.33;;
23117;SDS011;11728;50.624;6.014;2023-04-03T15:30:33;5.67;;;1.40;;
23117;SDS011;11728;50.624;6.014;2023-04-03T15:35:38;4.85;;;1.73;;
23117;SDS011;11728;50.624;6.014;2023-04-03T15:40:39;3.08;;;1.10;;
23117;SDS011;11728;50.624;6.014;2023-04-03T15:45:40;3.30;;;1.00;;
23117;SDS011;11728;50.624;6.014;2023-04-03T15:50:41;2.65;;;1.08;;
23117;SDS011;11728;50.624;6.014;2023-04-03T15:55:42;3.83;;;1.10;;
23117;SDS011;11728;50.624;6.014;2023-04-03T16:00:42;4.67;;;1.10;;
23117;SDS011;11728;50.624;6.014;2023-04-03T16:05:43;3.58;;;1.10;;
23117;SDS011;11728;50.624;6.014;2023-04-03T16:10:44;4.18;;;1.25;;
23117;SDS011;11728;50.624;6.014;2023-04-03T16:15:47;3.15;;;1.27;;
23117;SDS011;11728;50.624;6.014;2023-04-03T16:20:48;3.63;;;1.20;;
23117;SDS011;11728;50.624;6.014;2023-04-03T16:25:49;4.30;;;0.95;;
23117;SDS011;11728;50.624;6.014;2023-04-03T16:30:50;3.28;;;1.10;;
23117;SDS011;11728;50.624;6.014;2023-04-03T16:35:52;3.78;;;1.42;;
23117;SDS011;11728;50.624;6.014;2023-04-03T16:40:53;2.60;;;1.20;;
23117;SDS011;11728;50.624;6.014;2023-04-03T16:45:57;5.60;;;1.63;;
23117;SDS011;11728;50.624;6.014;2023-04-03T16:50:57;6.78;;;1.92;;
23117;SDS011;11728;50.624;6.014;2023-04-03T16:55:59;4.78;;;1.60;;
23117;SDS011;11728;50.624;6.014;2023-04-03T17:01:08;3.67;;;1.73;;
23117;SDS011;11728;50.624;6.014;2023-04-03T17:06:10;3.85;;;1.58;;
23117;SDS011;11728;50.624;6.014;2023-04-03T17:11:16;7.00;;;1.70;;
23117;SDS011;11728;50.624;6.014;2023-04-03T17:16:16;4.88;;;1.45;;
23117;SDS011;11728;50.624;6.014;2023-04-03T17:21:17;3.28;;;1.73;;
23117;SDS011;11728;50.624;6.014;2023-04-03T17:26:18;4.20;;;1.38;;
23117;SDS011;11728;50.624;6.014;2023-04-03T17:31:18;5.50;;;1.58;;
23117;SDS011;11728;50.624;6.014;2023-04-03T17:36:19;3.58;;;1.48;;
23117;SDS011;11728;50.624;6.014;2023-04-03T17:41:19;3.65;;;1.30;;
23117;SDS011;11728;50.624;6.014;2023-04-03T17:46:20;5.47;;;1.48;;
23117;SDS011;11728;50.624;6.014;2023-04-03T17:51:21;4.33;;;1.37;;
23117;SDS011;11728;50.624;6.014;2023-04-03T17:56:24;4.15;;;1.75;;
23117;SDS011;11728;50.624;6.014;2023-04-03T18:01:32;6.43;;;1.98;;
23117;SDS011;11728;50.624;6.014;2023-04-03T18:11:46;4.28;;;1.48;;
23117;SDS011;11728;50.624;6.014;2023-04-03T18:16:47;4.20;;;1.92;;
23117;SDS011;11728;50.624;6.014;2023-04-03T18:21:48;3.63;;;1.50;;
23117;SDS011;11728;50.624;6.014;2023-04-03T18:26:50;4.35;;;1.60;;
23117;SDS011;11728;50.624;6.014;2023-04-03T18:31:55;7.22;;;2.28;;
23117;SDS011;11728;50.624;6.014;2023-04-03T18:36:56;6.28;;;1.65;;
23117;SDS011;11728;50.624;6.014;2023-04-03T18:41:57;3.95;;;1.67;;
23117;SDS011;11728;50.624;6.014;2023-04-03T18:47:02;5.25;;;1.88;;
23117;SDS011;11728;50.624;6.014;2023-04-03T18:52:03;6.43;;;2.38;;
23117;SDS011;11728;50.624;6.014;2023-04-03T18:57:04;4.90;;;2.35;;
23117;SDS011;11728;50.624;6.014;2023-04-03T19:02:05;7.95;;;2.58;;
23117;SDS011;11728;50.624;6.014;2023-04-03T19:07:07;4.05;;;2.22;;
23117;SDS011;11728;50.624;6.014;2023-04-03T19:12:09;6.97;;;2.90;;
23117;SDS011;11728;50.624;6.014;2023-04-03T19:17:09;9.75;;;2.63;;
23117;SDS011;11728;50.624;6.014;2023-04-03T19:22:09;7.93;;;2.60;;
23117;SDS011;11728;50.624;6.014;2023-04-03T19:27:10;6.80;;;3.35;;
23117;SDS011;11728;50.624;6.014;2023-04-03T19:32:10;7.20;;;3.28;;
23117;SDS011;11728;50.624;6.014;2023-04-03T19:37:11;6.25;;;2.40;;
23117;SDS011;11728;50.624;6.014;2023-04-03T19:42:13;6.30;;;2.15;;
23117;SDS011;11728;50.624;6.014;2023-04-03T19:47:14;7.78;;;3.42;;
23117;SDS011;11728;50.624;6.014;2023-04-03T19:52:16;6.20;;;2.78;;
23117;SDS011;11728;50.624;6.014;2023-04-03T19:57:17;5.40;;;2.85;;
23117;SDS011;11728;50.624;6.014;2023-04-03T20:02:18;7.38;;;2.30;;
23117;SDS011;11728;50.624;6.014;2023-04-03T20:07:20;6.50;;;2.70;;
23117;SDS011;11728;50.624;6.014;2023-04-03T20:12:20;5.97;;;3.00;;
23117;SDS011;11728;50.624;6.014;2023-04-03T20:17:21;6.07;;;2.70;;
23117;SDS011;11728;50.624;6.014;2023-04-03T20:22:21;8.90;;;3.10;;
23117;SDS011;11728;50.624;6.014;2023-04-03T20:27:25;5.45;;;2.80;;
23117;SDS011;11728;50.624;6.014;2023-04-03T20:32:25;5.07;;;2.10;;
23117;SDS011;11728;50.624;6.014;2023-04-03T20:37:26;4.97;;;2.10;;
23117;SDS011;11728;50.624;6.014;2023-04-03T20:42:27;5.70;;;2.70;;
23117;SDS011;11728;50.624;6.014;2023-04-03T20:47:27;3.67;;;1.90;;
23117;SDS011;11728;50.624;6.014;2023-04-03T20:52:28;6.83;;;2.33;;
23117;SDS011;11728;50.624;6.014;2023-04-03T20:57:28;4.43;;;1.95;;
23117;SDS011;11728;50.624;6.014;2023-04-03T21:02:30;4.95;;;1.90;;
23117;SDS011;11728;50.624;6.014;2023-04-03T21:24:01;5.40;;;2.60;;
23117;SDS011;11728;50.624;6.014;2023-04-03T21:29:06;3.42;;;1.98;;
23117;SDS011;11728;50.624;6.014;2023-04-03T21:34:06;4.65;;;2.25;;
23117;SDS011;11728;50.624;6.014;2023-04-03T21:39:07;5.25;;;2.45;;
23117;SDS011;11728;50.624;6.014;2023-04-03T21:44:07;6.38;;;2.45;;
23117;SDS011;11728;50.624;6.014;2023-04-03T21:49:08;4.20;;;2.10;;
23117;SDS011;11728;50.624;6.014;2023-04-03T21:54:09;4.47;;;2.28;;
23117;SDS011;11728;50.624;6.014;2023-04-03T21:59:09;3.58;;;1.90;;
23117;SDS011;11728;50.624;6.014;2023-04-03T22:04:10;6.03;;;2.40;;
23117;SDS011;11728;50.624;6.014;2023-04-03T22:09:10;8.55;;;2.17;;
23117;SDS011;11728;50.624;6.014;2023-04-03T22:14:11;5.88;;;1.83;;
23117;SDS011;11728;50.624;6.014;2023-04-03T22:19:12;4.65;;;2.10;;
23117;SDS011;11728;50.624;6.014;2023-04-03T22:24:13;7.22;;;2.17;;
23117;SDS011;11728;50.624;6.014;2023-04-03T22:29:17;4.75;;;2.20;;
23117;SDS011;11728;50.624;6.014;2023-04-03T22:34:18;5.75;;;2.20;;
23117;SDS011;11728;50.624;6.014;2023-04-03T22:39:19;7.38;;;2.17;;
23117;SDS011;11728;50.624;6.014;2023-04-03T22:44:19;3.97;;;2.10;;
23117;SDS011;11728;50.624;6.014;2023-04-03T22:49:20;6.20;;;2.33;;
23117;SDS011;11728;50.624;6.014;2023-04-03T22:54:20;6.15;;;2.35;;
23117;SDS011;11728;50.624;6.014;2023-04-03T22:59:21;4.90;;;2.25;;
23117;SDS011;11728;50.624;6.014;2023-04-03T23:04:21;5.45;;;2.42;;
23117;SDS011;11728;50.624;6.014;2023-04-03T23:09:21;8.30;;;2.30;;
23117;SDS011;11728;50.624;6.014;2023-04-03T23:14:22;9.93;;;2.63;;
23117;SDS011;11728;50.624;6.014;2023-04-03T23:19:22;5.67;;;2.87;;
23117;SDS011;11728;50.624;6.014;2023-04-03T23:24:23;6.17;;;2.20;;
23117;SDS011;11728;50.624;6.014;2023-04-03T23:29:23;6.28;;;2.47;;
23117;SDS011;11728;50.624;6.014;2023-04-03T23:34:23;5.13;;;2.20;;
23117;SDS011;11728;50.624;6.014;2023-04-03T23:39:24;6.03;;;3.00;;
23117;SDS011;11728;50.624;6.014;2023-04-03T23:44:24;9.50;;;4.68;;
23117;SDS011;11728;50.624;6.014;2023-04-03T23:49:25;7.63;;;3.35;;
23117;SDS011;11728;50.624;6.014;2023-04-03T23:54:26;7.90;;;2.80;;
23117;SDS011;11728;50.624;6.014;2023-04-03T23:59:26;8.20;;;3.60;;
